Pascola, Missouri
Current Conditions -  °F | °C
As of 10:53 PM on Saturday 22 Nov 2014 (Local Time) from KHKA Reporting Station
Clear Clear  
Wind Chill: 59°   Ceiling: Unl
Heat Index: 59°   Visibility: 10mi
Dew Point: 44°   Wind: 7mph
Humidity: 58%   Direction: 160°SSE
Pressure: 29.96"   Gusts: NA
Location:  36.27°N, 89.83°W
Report Text: KHKA 230453Z AUTO 16006KT 10SM CLR 15/07 A2996 RMK AO2 SLP143 T01500067 $
Loading
Personal Weather Stations






























Interactive Weather Map New forecast layout! Learn more

10-Day Weather Forecast

Advertisements
Track Severe Weather on mobile